Altair — 9LC2000 — position and weather

sailwx.info

Track history (hours):
 
Tides and Currents Weather Stations Pressure Air Temp Water Temp Dewpoint Dewpoint Depression Visibility Wind Speed Wind Dir Waves Ship Positions

Altair

Last reported at 2016-May-01 20:33 UTC. Time now 2016-May-03 18:14 UTC.
Position N 44°16' E 034°29'.

Length 108 m; draft 3.7 m.

Type: Cargo ship. MMSI: 667021000.

Date/timePositionNaut miles runAvg speedWind from/ knotsBaromVisibWave heightAir tempDewpointWater temp
2016-May-01 20:33N 44°16' E 034°29'8 8.0
2016-May-01 19:33N 44°21' E 034°38'8 8.1
2016-May-01 18:33N 44°26' E 034°47'8 8.1
2016-May-01 17:33N 44°28' E 034°58'77 6.9
2016-May-01 06:31N 45°10' E 036°29'7 7.5
2016-May-01 05:33N 45°17' E 036°29'8 8.0
2016-May-01 04:33N 45°21' E 036°39'7 7.5
2016-May-01 03:33N 45°28' E 036°42'84 6.8
2016-Apr-30 15:12N 46°46' E 037°27'19 6.2
2016-Apr-30 12:14N 46°54' E 037°51'5 6.9
2016-Apr-30 11:33N 46°56' E 037°58'7 7.0
2016-Apr-30 10:33N 46°58' E 038°07'7 7.0
2016-Apr-30 09:32N 47°01' E 038°17'7 7.1
2016-Apr-30 08:33N 47°01' E 038°27'7 7.1
2016-Apr-30 07:33N 47°01' E 038°38'7 6.9
2016-Apr-30 06:33N 47°05' E 038°46'12 6.0
2016-Apr-30 04:33N 47°04' E 039°04'  
2016-Apr-25 06:20N 45°32' E 036°49'5 6.7
2016-Apr-25 05:34N 45°28' E 036°45'7 7.0
2016-Apr-25 04:34N 45°22' E 036°40'7 7.1
2016-Apr-25 03:34N 45°19' E 036°31'7 7.1
2016-Apr-25 02:34N 45°12' E 036°28'7 7.0
2016-Apr-25 01:33N 45°05' E 036°30'49 6.1
2016-Apr-24 17:32N 44°21' E 035°59'7 6.7
2016-Apr-24 16:34N 44°16' E 035°54'6 6.5
2016-Apr-24 15:34N 44°11' E 035°48'6 6.4
2016-Apr-24 14:34N 44°06' E 035°42'7 6.6
2016-Apr-24 13:34N 44°01' E 035°36'7 6.6
2016-Apr-24 12:33N 43°56' E 035°31'7 6.6
2016-Apr-24 11:32N 43°51' E 035°25'41 6.9
2016-Apr-24 05:33N 43°18' E 034°49'8 6.8
2016-Apr-24 04:19N 43°12' E 034°42'5 6.8
2016-Apr-24 03:33N 43°08' E 034°37'7 6.7
2016-Apr-24 02:34N 43°03' E 034°31'7 6.7
2016-Apr-24 01:32N 42°58' E 034°25'7 6.8
2016-Apr-24 00:31N 42°52' E 034°19'264 7.3
2016-Apr-22 12:05N 40°57' E 028°60'3 4.5
2016-Apr-22 11:26N 40°54' E 028°58'6 1.5
2016-Apr-22 07:33N 40°49' E 028°55'1 0.3
2016-Apr-22 03:11N 40°49' E 028°57'  
Track history (hours):
 
Tides and Currents Weather Stations Pressure Air Temp Water Temp Dewpoint Dewpoint Depression Visibility Wind Speed Wind Dir Waves Ship Positions

Altair

Last reported at 2016-May-01 20:33 UTC. Time now 2016-May-03 18:14 UTC.
Position N 44°16' E 034°29'.

Length 108 m; draft 3.7 m.

Type: Cargo ship. MMSI: 667021000.

Date/timePositionNaut miles runAvg speedWind from/ knotsBaromVisibWave heightAir tempDewpointWater temp
2016-May-01 20:33N 44°16' E 034°29'8 8.0
2016-May-01 19:33N 44°21' E 034°38'8 8.1
2016-May-01 18:33N 44°26' E 034°47'8 8.1
2016-May-01 17:33N 44°28' E 034°58'77 6.9
2016-May-01 06:31N 45°10' E 036°29'7 7.5
2016-May-01 05:33N 45°17' E 036°29'8 8.0
2016-May-01 04:33N 45°21' E 036°39'7 7.5
2016-May-01 03:33N 45°28' E 036°42'84 6.8
2016-Apr-30 15:12N 46°46' E 037°27'19 6.2
2016-Apr-30 12:14N 46°54' E 037°51'5 6.9
2016-Apr-30 11:33N 46°56' E 037°58'7 7.0
2016-Apr-30 10:33N 46°58' E 038°07'7 7.0
2016-Apr-30 09:32N 47°01' E 038°17'7 7.1
2016-Apr-30 08:33N 47°01' E 038°27'7 7.1
2016-Apr-30 07:33N 47°01' E 038°38'7 6.9
2016-Apr-30 06:33N 47°05' E 038°46'12 6.0
2016-Apr-30 04:33N 47°04' E 039°04'  
2016-Apr-25 06:20N 45°32' E 036°49'5 6.7
2016-Apr-25 05:34N 45°28' E 036°45'7 7.0
2016-Apr-25 04:34N 45°22' E 036°40'7 7.1
2016-Apr-25 03:34N 45°19' E 036°31'7 7.1
2016-Apr-25 02:34N 45°12' E 036°28'7 7.0
2016-Apr-25 01:33N 45°05' E 036°30'49 6.1
2016-Apr-24 17:32N 44°21' E 035°59'7 6.7
2016-Apr-24 16:34N 44°16' E 035°54'6 6.5
2016-Apr-24 15:34N 44°11' E 035°48'6 6.4
2016-Apr-24 14:34N 44°06' E 035°42'7 6.6
2016-Apr-24 13:34N 44°01' E 035°36'7 6.6
2016-Apr-24 12:33N 43°56' E 035°31'7 6.6
2016-Apr-24 11:32N 43°51' E 035°25'41 6.9
2016-Apr-24 05:33N 43°18' E 034°49'8 6.8
2016-Apr-24 04:19N 43°12' E 034°42'5 6.8
2016-Apr-24 03:33N 43°08' E 034°37'7 6.7
2016-Apr-24 02:34N 43°03' E 034°31'7 6.7
2016-Apr-24 01:32N 42°58' E 034°25'7 6.8
2016-Apr-24 00:31N 42°52' E 034°19'264 7.3
2016-Apr-22 12:05N 40°57' E 028°60'3 4.5
2016-Apr-22 11:26N 40°54' E 028°58'6 1.5
2016-Apr-22 07:33N 40°49' E 028°55'1 0.3
2016-Apr-22 03:11N 40°49' E 028°57'  

Dump ship's entire track history